sensor_id;sensor_type;location;lat;lon;timestamp;pressure;altitude;pressure_sealevel;temperature;humidity
29315;BME280;16320;53.954;9.506;2022-12-20T00:00:08;101244.88;;;5.64;100.00
29315;BME280;16320;53.954;9.506;2022-12-20T00:03:13;101247.44;;;5.65;100.00
29315;BME280;16320;53.954;9.506;2022-12-20T00:06:19;101248.28;;;5.66;100.00
29315;BME280;16320;53.954;9.506;2022-12-20T00:09:24;101238.72;;;5.66;100.00
29315;BME280;16320;53.954;9.506;2022-12-20T00:12:29;101236.06;;;5.68;100.00
29315;BME280;16320;53.954;9.506;2022-12-20T00:15:36;101240.38;;;5.71;100.00
29315;BME280;16320;53.954;9.506;2022-12-20T00:18:41;101237.75;;;5.71;100.00
29315;BME280;16320;53.954;9.506;2022-12-20T00:21:47;101240.31;;;5.74;100.00
29315;BME280;16320;53.954;9.506;2022-12-20T00:24:51;101236.78;;;5.75;100.00
29315;BME280;16320;53.954;9.506;2022-12-20T00:27:56;101230.75;;;5.73;100.00
29315;BME280;16320;53.954;9.506;2022-12-20T00:31:07;101236.72;;;5.78;100.00
29315;BME280;16320;53.954;9.506;2022-12-20T00:34:15;101216.81;;;5.75;100.00
29315;BME280;16320;53.954;9.506;2022-12-20T00:37:22;101228.91;;;5.78;100.00
29315;BME280;16320;53.954;9.506;2022-12-20T00:40:27;101228.00;;;5.79;100.00
29315;BME280;16320;53.954;9.506;2022-12-20T00:44:09;101236.72;;;5.78;100.00
29315;BME280;16320;53.954;9.506;2022-12-20T00:47:19;101233.22;;;5.79;100.00
29315;BME280;16320;53.954;9.506;2022-12-20T00:50:27;101230.56;;;5.82;100.00
29315;BME280;16320;53.954;9.506;2022-12-20T00:53:32;101227.06;;;5.81;100.00
29315;BME280;16320;53.954;9.506;2022-12-20T00:56:37;101221.03;;;5.79;100.00
29315;BME280;16320;53.954;9.506;2022-12-20T00:59:41;101220.94;;;5.84;100.00
29315;BME280;16320;53.954;9.506;2022-12-20T01:02:46;101219.13;;;5.86;100.00
29315;BME280;16320;53.954;9.506;2022-12-20T01:05:57;101221.75;;;5.86;100.00
29315;BME280;16320;53.954;9.506;2022-12-20T01:09:03;101206.91;;;5.88;100.00
29315;BME280;16320;53.954;9.506;2022-12-20T01:12:08;101202.59;;;5.89;100.00
29315;BME280;16320;53.954;9.506;2022-12-20T01:15:16;101196.44;;;5.90;100.00
29315;BME280;16320;53.954;9.506;2022-12-20T01:18:21;101185.13;;;5.91;100.00
29315;BME280;16320;53.954;9.506;2022-12-20T01:21:27;101178.19;;;5.90;100.00
29315;BME280;16320;53.954;9.506;2022-12-20T01:24:42;101178.97;;;5.95;100.00
29315;BME280;16320;53.954;9.506;2022-12-20T01:27:50;101167.63;;;5.97;100.00
29315;BME280;16320;53.954;9.506;2022-12-20T01:30:58;101157.19;;;5.97;100.00
29315;BME280;16320;53.954;9.506;2022-12-20T01:34:07;101150.13;;;6.01;100.00
29315;BME280;16320;53.954;9.506;2022-12-20T01:37:13;101141.44;;;6.02;100.00
29315;BME280;16320;53.954;9.506;2022-12-20T01:40:18;101144.06;;;6.00;100.00
29315;BME280;16320;53.954;9.506;2022-12-20T01:43:28;101132.72;;;6.03;100.00
29315;BME280;16320;53.954;9.506;2022-12-20T01:46:52;101118.81;;;6.02;100.00
29315;BME280;16320;53.954;9.506;2022-12-20T01:50:04;101121.25;;;6.09;100.00
29315;BME280;16320;53.954;9.506;2022-12-20T01:53:20;101122.91;;;6.13;100.00
29315;BME280;16320;53.954;9.506;2022-12-20T01:56:45;101118.53;;;6.13;100.00
29315;BME280;16320;53.954;9.506;2022-12-20T01:59:56;101108.09;;;6.13;100.00
29315;BME280;16320;53.954;9.506;2022-12-20T02:03:36;101117.59;;;6.16;100.00
29315;BME280;16320;53.954;9.506;2022-12-20T02:06:48;101112.38;;;6.16;100.00
29315;BME280;16320;53.954;9.506;2022-12-20T02:09:57;101115.81;;;6.18;100.00
29315;BME280;16320;53.954;9.506;2022-12-20T02:13:15;101107.06;;;6.19;100.00
29315;BME280;16320;53.954;9.506;2022-12-20T02:16:38;101107.06;;;6.19;100.00
29315;BME280;16320;53.954;9.506;2022-12-20T02:24:38;101112.19;;;6.22;100.00
29315;BME280;16320;53.954;9.506;2022-12-20T02:28:05;101119.13;;;6.23;100.00
29315;BME280;16320;53.954;9.506;2022-12-20T02:31:20;101101.75;;;6.22;100.00
29315;BME280;16320;53.954;9.506;2022-12-20T02:34:37;101100.88;;;6.23;100.00
29315;BME280;16320;53.954;9.506;2022-12-20T02:37:58;101101.72;;;6.23;100.00
29315;BME280;16320;53.954;9.506;2022-12-20T02:41:26;101088.63;;;6.25;100.00
29315;BME280;16320;53.954;9.506;2022-12-20T02:44:53;101085.22;;;6.23;100.00
29315;BME280;16320;53.954;9.506;2022-12-20T02:48:20;101092.09;;;6.27;100.00
29315;BME280;16320;53.954;9.506;2022-12-20T02:51:32;101079.88;;;6.28;100.00
29315;BME280;16320;53.954;9.506;2022-12-20T02:55:06;101082.38;;;6.32;100.00
29315;BME280;16320;53.954;9.506;2022-12-20T02:58:31;101070.22;;;6.31;100.00
29315;BME280;16320;53.954;9.506;2022-12-20T03:01:53;101067.59;;;6.31;100.00
29315;BME280;16320;53.954;9.506;2022-12-20T03:05:16;101057.97;;;6.33;100.00
29315;BME280;16320;53.954;9.506;2022-12-20T03:08:36;101052.66;;;6.36;100.00
29315;BME280;16320;53.954;9.506;2022-12-20T03:11:41;101056.06;;;6.38;100.00
29315;BME280;16320;53.954;9.506;2022-12-20T03:14:57;101048.31;;;6.37;100.00
29315;BME280;16320;53.954;9.506;2022-12-20T03:18:06;101064.06;;;6.34;100.00
29315;BME280;16320;53.954;9.506;2022-12-20T03:21:35;101054.31;;;6.40;100.00
29315;BME280;16320;53.954;9.506;2022-12-20T03:25:24;101059.53;;;6.40;100.00
29315;BME280;16320;53.954;9.506;2022-12-20T03:28:38;101061.13;;;6.45;100.00
29315;BME280;16320;53.954;9.506;2022-12-20T03:31:57;101064.44;;;6.50;100.00
29315;BME280;16320;53.954;9.506;2022-12-20T03:35:05;101067.94;;;6.50;100.00
29315;BME280;16320;53.954;9.506;2022-12-20T03:38:17;101067.91;;;6.52;100.00
29315;BME280;16320;53.954;9.506;2022-12-20T03:41:27;101063.53;;;6.52;100.00
29315;BME280;16320;53.954;9.506;2022-12-20T03:44:40;101072.09;;;6.56;100.00
29315;BME280;16320;53.954;9.506;2022-12-20T03:51:19;101063.44;;;6.55;100.00
29315;BME280;16320;53.954;9.506;2022-12-20T03:54:26;101063.31;;;6.60;100.00
29315;BME280;16320;53.954;9.506;2022-12-20T03:57:43;101054.56;;;6.61;100.00
29315;BME280;16320;53.954;9.506;2022-12-20T04:01:15;101044.03;;;6.64;100.00
29315;BME280;16320;53.954;9.506;2022-12-20T04:04:32;101060.50;;;6.66;100.00
29315;BME280;16320;53.954;9.506;2022-12-20T04:07:37;101063.00;;;6.69;100.00
29315;BME280;16320;53.954;9.506;2022-12-20T04:10:52;101060.31;;;6.72;100.00
29315;BME280;16320;53.954;9.506;2022-12-20T04:14:18;101057.66;;;6.74;100.00
29315;BME280;16320;53.954;9.506;2022-12-20T04:17:23;101060.22;;;6.75;100.00
29315;BME280;16320;53.954;9.506;2022-12-20T04:20:56;101048.09;;;6.74;100.00
29315;BME280;16320;53.954;9.506;2022-12-20T04:24:09;101046.28;;;6.76;100.00
29315;BME280;16320;53.954;9.506;2022-12-20T04:27:31;101039.31;;;6.75;100.00
29315;BME280;16320;53.954;9.506;2022-12-20T04:31:00;101045.31;;;6.79;100.00
29315;BME280;16320;53.954;9.506;2022-12-20T04:34:40;101031.41;;;6.78;100.00
29315;BME280;16320;53.954;9.506;2022-12-20T04:38:20;101033.94;;;6.82;100.00
29315;BME280;16320;53.954;9.506;2022-12-20T04:41:30;101031.34;;;6.80;100.00
29315;BME280;16320;53.954;9.506;2022-12-20T04:45:26;101032.13;;;6.84;100.00
29315;BME280;16320;53.954;9.506;2022-12-20T04:48:44;101037.34;;;6.84;100.00
29315;BME280;16320;53.954;9.506;2022-12-20T04:52:28;101027.72;;;6.86;100.00
29315;BME280;16320;53.954;9.506;2022-12-20T04:56:32;101020.81;;;6.83;100.00
29315;BME280;16320;53.954;9.506;2022-12-20T04:59:42;101025.94;;;6.86;100.00
29315;BME280;16320;53.954;9.506;2022-12-20T05:02:50;101032.13;;;6.84;100.00
29315;BME280;16320;53.954;9.506;2022-12-20T05:05:56;101029.41;;;6.87;100.00
29315;BME280;16320;53.954;9.506;2022-12-20T05:09:01;101023.44;;;6.83;100.00
29315;BME280;16320;53.954;9.506;2022-12-20T05:12:10;101012.06;;;6.86;100.00
29315;BME280;16320;53.954;9.506;2022-12-20T05:15:15;101017.28;;;6.86;100.00
29315;BME280;16320;53.954;9.506;2022-12-20T05:18:20;101025.09;;;6.86;100.00
29315;BME280;16320;53.954;9.506;2022-12-20T05:21:25;101027.69;;;6.87;100.00
29315;BME280;16320;53.954;9.506;2022-12-20T05:24:48;101017.28;;;6.86;100.00
29315;BME280;16320;53.954;9.506;2022-12-20T05:28:11;101012.06;;;6.86;100.00
29315;BME280;16320;53.954;9.506;2022-12-20T05:31:15;101019.75;;;6.89;100.00
29315;BME280;16320;53.954;9.506;2022-12-20T05:34:20;101021.47;;;6.90;100.00
29315;BME280;16320;53.954;9.506;2022-12-20T05:37:24;101024.91;;;6.92;100.00
29315;BME280;16320;53.954;9.506;2022-12-20T05:40:29;101024.91;;;6.92;100.00
29315;BME280;16320;53.954;9.506;2022-12-20T05:43:33;101019.66;;;6.92;100.00
29315;BME280;16320;53.954;9.506;2022-12-20T05:46:38;101020.50;;;6.94;100.00
29315;BME280;16320;53.954;9.506;2022-12-20T05:49:43;101017.88;;;6.94;100.00
29315;BME280;16320;53.954;9.506;2022-12-20T05:52:48;101019.53;;;6.96;100.00
29315;BME280;16320;53.954;9.506;2022-12-20T05:55:53;101009.97;;;6.97;100.00
29315;BME280;16320;53.954;9.506;2022-12-20T05:58:58;101007.22;;;7.00;100.00
29315;BME280;16320;53.954;9.506;2022-12-20T06:02:05;100993.38;;;6.98;100.00
29315;BME280;16320;53.954;9.506;2022-12-20T06:05:10;100995.09;;;6.99;100.00
29315;BME280;16320;53.954;9.506;2022-12-20T06:09:05;100999.44;;;6.99;100.00
29315;BME280;16320;53.954;9.506;2022-12-20T06:12:12;101029.94;;;6.98;100.00
29315;BME280;16320;53.954;9.506;2022-12-20T06:15:39;101018.63;;;6.97;100.00
29315;BME280;16320;53.954;9.506;2022-12-20T06:18:46;101019.47;;;6.98;100.00
29315;BME280;16320;53.954;9.506;2022-12-20T06:26:57;101023.00;;;6.97;100.00
29315;BME280;16320;53.954;9.506;2022-12-20T06:30:08;101025.69;;;6.95;100.00
29315;BME280;16320;53.954;9.506;2022-12-20T06:33:48;101038.59;;;6.99;100.00
29315;BME280;16320;53.954;9.506;2022-12-20T06:37:29;101044.69;;;6.99;100.00
29315;BME280;16320;53.954;9.506;2022-12-20T06:44:40;101053.28;;;7.03;100.00
29315;BME280;16320;53.954;9.506;2022-12-20T06:48:18;101048.81;;;7.06;100.00
29315;BME280;16320;53.954;9.506;2022-12-20T06:51:25;101065.25;;;7.10;100.00
29315;BME280;16320;53.954;9.506;2022-12-20T06:54:34;101057.34;;;7.11;100.00
29315;BME280;16320;53.954;9.506;2022-12-20T06:57:41;101063.47;;;7.12;100.00
29315;BME280;16320;53.954;9.506;2022-12-20T07:00:54;101061.69;;;7.12;100.00
29315;BME280;16320;53.954;9.506;2022-12-20T07:04:01;101061.69;;;7.12;100.00
29315;BME280;16320;53.954;9.506;2022-12-20T07:07:08;101062.47;;;7.14;100.00
29315;BME280;16320;53.954;9.506;2022-12-20T07:10:14;101060.69;;;7.17;100.00
29315;BME280;16320;53.954;9.506;2022-12-20T07:13:25;101057.16;;;7.18;100.00
29315;BME280;16320;53.954;9.506;2022-12-20T07:16:51;101055.31;;;7.21;100.00
29315;BME280;16320;53.954;9.506;2022-12-20T07:19:56;101066.59;;;7.23;100.00
29315;BME280;16320;53.954;9.506;2022-12-20T07:23:01;101059.53;;;7.25;100.00
29315;BME280;16320;53.954;9.506;2022-12-20T07:26:28;101062.09;;;7.27;100.00
29315;BME280;16320;53.954;9.506;2022-12-20T07:29:36;101058.47;;;7.31;100.00
29315;BME280;16320;53.954;9.506;2022-12-20T07:32:47;101057.63;;;7.30;100.00
29315;BME280;16320;53.954;9.506;2022-12-20T07:36:09;101070.63;;;7.32;100.00
29315;BME280;16320;53.954;9.506;2022-12-20T07:39:19;101065.38;;;7.33;100.00
29315;BME280;16320;53.954;9.506;2022-12-20T07:42:45;101060.03;;;7.37;100.00
29315;BME280;16320;53.954;9.506;2022-12-20T07:45:59;101070.34;;;7.41;100.00
29315;BME280;16320;53.954;9.506;2022-12-20T07:49:27;101065.03;;;7.44;100.00
29315;BME280;16320;53.954;9.506;2022-12-20T07:53:16;101068.47;;;7.45;100.00
29315;BME280;16320;53.954;9.506;2022-12-20T07:56:51;101072.81;;;7.46;100.00
29315;BME280;16320;53.954;9.506;2022-12-20T07:59:59;101067.50;;;7.49;100.00
29315;BME280;16320;53.954;9.506;2022-12-20T08:03:16;101076.03;;;7.54;100.00
29315;BME280;16320;53.954;9.506;2022-12-20T08:06:22;101075.06;;;7.57;100.00
29315;BME280;16320;53.954;9.506;2022-12-20T08:09:49;101071.53;;;7.58;100.00
29315;BME280;16320;53.954;9.506;2022-12-20T08:13:01;101070.69;;;7.57;100.00
29315;BME280;16320;53.954;9.506;2022-12-20T08:16:07;101068.84;;;7.61;100.00
29315;BME280;16320;53.954;9.506;2022-12-20T08:19:41;101056.59;;;7.61;100.00
29315;BME280;16320;53.954;9.506;2022-12-20T08:23:19;101057.34;;;7.65;100.00
29315;BME280;16320;53.954;9.506;2022-12-20T08:26:40;101053.72;;;7.69;100.00
29315;BME280;16320;53.954;9.506;2022-12-20T08:30:03;101054.59;;;7.69;100.00
29315;BME280;16320;53.954;9.506;2022-12-20T08:33:14;101050.31;;;7.67;100.00
29315;BME280;16320;53.954;9.506;2022-12-20T08:36:26;101048.31;;;7.75;100.00
29315;BME280;16320;53.954;9.506;2022-12-20T08:39:48;101049.09;;;7.77;100.00
29315;BME280;16320;53.954;9.506;2022-12-20T08:43:31;101049.09;;;7.77;100.00
29315;BME280;16320;53.954;9.506;2022-12-20T08:46:48;101054.28;;;7.79;100.00
29315;BME280;16320;53.954;9.506;2022-12-20T08:49:56;101049.03;;;7.79;100.00
29315;BME280;16320;53.954;9.506;2022-12-20T08:53:59;101053.28;;;7.81;100.00
29315;BME280;16320;53.954;9.506;2022-12-20T08:57:52;101042.84;;;7.81;100.00
29315;BME280;16320;53.954;9.506;2022-12-20T09:01:22;101052.34;;;7.84;100.00
29315;BME280;16320;53.954;9.506;2022-12-20T09:05:14;101048.84;;;7.85;100.00
29315;BME280;16320;53.954;9.506;2022-12-20T09:08:34;101048.84;;;7.85;100.00
29315;BME280;16320;53.954;9.506;2022-12-20T09:11:40;101047.00;;;7.87;100.00
29315;BME280;16320;53.954;9.506;2022-12-20T09:15:15;101052.19;;;7.88;100.00
29315;BME280;16320;53.954;9.506;2022-12-20T09:18:21;101052.19;;;7.88;100.00
29315;BME280;16320;53.954;9.506;2022-12-20T09:21:28;101054.75;;;7.90;100.00
29315;BME280;16320;53.954;9.506;2022-12-20T09:24:56;101047.63;;;7.94;100.00
29315;BME280;16320;53.954;9.506;2022-12-20T09:28:09;101052.88;;;7.94;100.00
29315;BME280;16320;53.954;9.506;2022-12-20T09:40:46;101049.25;;;7.98;100.00
29315;BME280;16320;53.954;9.506;2022-12-20T09:43:53;101042.19;;;8.00;100.00
29315;BME280;16320;53.954;9.506;2022-12-20T09:47:29;101045.59;;;8.02;100.00
29315;BME280;16320;53.954;9.506;2022-12-20T09:55:20;101045.59;;;8.02;100.00
29315;BME280;16320;53.954;9.506;2022-12-20T09:59:23;101032.47;;;8.03;100.00
29315;BME280;16320;53.954;9.506;2022-12-20T10:03:27;101032.53;;;8.02;100.00
29315;BME280;16320;53.954;9.506;2022-12-20T10:26:10;101014.56;;;8.16;100.00
29315;BME280;16320;53.954;9.506;2022-12-20T10:29:19;101015.34;;;8.18;100.00
29315;BME280;16320;53.954;9.506;2022-12-20T10:32:26;101015.25;;;8.21;100.00
29315;BME280;16320;53.954;9.506;2022-12-20T10:35:42;101014.41;;;8.21;100.00
29315;BME280;16320;53.954;9.506;2022-12-20T10:39:15;101016.09;;;8.22;100.00
29315;BME280;16320;53.954;9.506;2022-12-20T10:42:46;101005.50;;;8.25;100.00
29315;BME280;16320;53.954;9.506;2022-12-20T10:46:10;101002.72;;;8.30;100.00
29315;BME280;16320;53.954;9.506;2022-12-20T10:49:38;100995.66;;;8.32;100.00
29315;BME280;16320;53.954;9.506;2022-12-20T10:57:49;100987.69;;;8.35;100.00
29315;BME280;16320;53.954;9.506;2022-12-20T11:01:49;100981.31;;;8.42;100.00
29315;BME280;16320;53.954;9.506;2022-12-20T11:13:02;100967.38;;;8.65;100.00
29315;BME280;16320;53.954;9.506;2022-12-20T11:16:51;100962.13;;;8.65;100.00
29315;BME280;16320;53.954;9.506;2022-12-20T11:25:30;100958.78;;;8.61;100.00
29315;BME280;16320;53.954;9.506;2022-12-20T11:30:07;100954.63;;;8.56;100.00
29315;BME280;16320;53.954;9.506;2022-12-20T11:55:48;100938.19;;;8.52;100.00
29315;BME280;16320;53.954;9.506;2022-12-20T12:04:13;100916.34;;;8.53;100.00
29315;BME280;16320;53.954;9.506;2022-12-20T12:07:51;100906.00;;;8.50;100.00
29315;BME280;16320;53.954;9.506;2022-12-20T12:19:02;100903.91;;;8.58;100.00
29315;BME280;16320;53.954;9.506;2022-12-20T12:22:50;100896.91;;;8.59;100.00
29315;BME280;16320;53.954;9.506;2022-12-20T12:56:43;100811.84;;;8.69;100.00
29315;BME280;16320;53.954;9.506;2022-12-20T12:59:50;100812.44;;;8.76;100.00
29315;BME280;16320;53.954;9.506;2022-12-20T13:03:14;100811.63;;;8.74;100.00
29315;BME280;16320;53.954;9.506;2022-12-20T13:06:59;100796.59;;;8.79;100.00
29315;BME280;16320;53.954;9.506;2022-12-20T13:13:33;100789.50;;;8.81;100.00
29315;BME280;16320;53.954;9.506;2022-12-20T13:21:47;100787.78;;;8.80;100.00
29315;BME280;16320;53.954;9.506;2022-12-20T13:25:27;100787.66;;;8.83;100.00
29315;BME280;16320;53.954;9.506;2022-12-20T13:33:44;100769.41;;;8.82;100.00
29315;BME280;16320;53.954;9.506;2022-12-20T13:37:49;100765.09;;;8.81;100.00
29315;BME280;16320;53.954;9.506;2022-12-20T13:41:50;100770.53;;;8.76;100.00
29315;BME280;16320;53.954;9.506;2022-12-20T13:45:09;100775.75;;;8.76;100.00
29315;BME280;16320;53.954;9.506;2022-12-20T13:49:14;100769.78;;;8.72;100.00
29315;BME280;16320;53.954;9.506;2022-12-20T13:52:48;100768.88;;;8.73;100.00
29315;BME280;16320;53.954;9.506;2022-12-20T13:56:33;100756.63;;;8.74;100.00
29315;BME280;16320;53.954;9.506;2022-12-20T13:59:42;100758.59;;;8.69;100.00
29315;BME280;16320;53.954;9.506;2022-12-20T14:03:26;100764.84;;;8.66;100.00
29315;BME280;16320;53.954;9.506;2022-12-20T14:06:38;100762.94;;;8.70;100.00
29315;BME280;16320;53.954;9.506;2022-12-20T14:09:56;100758.59;;;8.69;100.00
29315;BME280;16320;53.954;9.506;2022-12-20T14:13:22;100751.69;;;8.68;100.00
29315;BME280;16320;53.954;9.506;2022-12-20T14:16:31;100754.44;;;8.65;100.00
29315;BME280;16320;53.954;9.506;2022-12-20T14:20:06;100760.50;;;8.65;100.00
29315;BME280;16320;53.954;9.506;2022-12-20T14:28:38;100737.91;;;8.63;100.00
29315;BME280;16320;53.954;9.506;2022-12-20T14:32:19;100733.69;;;8.60;100.00
29315;BME280;16320;53.954;9.506;2022-12-20T14:35:54;100749.38;;;8.60;100.00
29315;BME280;16320;53.954;9.506;2022-12-20T14:39:26;100751.06;;;8.61;100.00
29315;BME280;16320;53.954;9.506;2022-12-20T14:47:29;100765.16;;;8.58;100.00
29315;BME280;16320;53.954;9.506;2022-12-20T14:50:40;100756.47;;;8.58;100.00
29315;BME280;16320;53.954;9.506;2022-12-20T14:54:27;100766.06;;;8.57;100.00
29315;BME280;16320;53.954;9.506;2022-12-20T15:08:45;100760.19;;;8.52;100.00
29315;BME280;16320;53.954;9.506;2022-12-20T15:12:19;100768.03;;;8.52;100.00
29315;BME280;16320;53.954;9.506;2022-12-20T15:16:47;100768.94;;;8.51;100.00
29315;BME280;16320;53.954;9.506;2022-12-20T15:28:55;100772.44;;;8.52;100.00
29315;BME280;16320;53.954;9.506;2022-12-20T15:33:16;100755.94;;;8.50;100.00
29315;BME280;16320;53.954;9.506;2022-12-20T15:40:55;100771.78;;;8.47;100.00
29315;BME280;16320;53.954;9.506;2022-12-20T15:44:55;100778.75;;;8.46;100.00
29315;BME280;16320;53.954;9.506;2022-12-20T15:53:33;100782.41;;;8.42;100.00
29315;BME280;16320;53.954;9.506;2022-12-20T16:19:53;100799.06;;;8.39;100.00
29315;BME280;16320;53.954;9.506;2022-12-20T16:23:24;100802.47;;;8.41;100.00
29315;BME280;16320;53.954;9.506;2022-12-20T16:26:39;100799.94;;;8.40;100.00
29315;BME280;16320;53.954;9.506;2022-12-20T16:29:44;100797.38;;;8.38;100.00
29315;BME280;16320;53.954;9.506;2022-12-20T16:32:49;100812.94;;;8.41;100.00
29315;BME280;16320;53.954;9.506;2022-12-20T16:35:54;100804.19;;;8.42;100.00
29315;BME280;16320;53.954;9.506;2022-12-20T16:38:59;100812.91;;;8.43;100.00
29315;BME280;16320;53.954;9.506;2022-12-20T16:42:23;100824.19;;;8.45;100.00
29315;BME280;16320;53.954;9.506;2022-12-20T16:45:42;100822.47;;;8.44;100.00
29315;BME280;16320;53.954;9.506;2022-12-20T16:49:02;100831.16;;;8.45;100.00
29315;BME280;16320;53.954;9.506;2022-12-20T16:52:15;100836.47;;;8.43;100.00
29315;BME280;16320;53.954;9.506;2022-12-20T16:55:24;100827.72;;;8.44;100.00
29315;BME280;16320;53.954;9.506;2022-12-20T16:58:29;100839.97;;;8.42;100.00
29315;BME280;16320;53.954;9.506;2022-12-20T17:02:31;100829.50;;;8.42;100.00
29315;BME280;16320;53.954;9.506;2022-12-20T17:05:37;100827.72;;;8.44;100.00
29315;BME280;16320;53.954;9.506;2022-12-20T17:09:01;100836.47;;;8.43;100.00
29315;BME280;16320;53.954;9.506;2022-12-20T17:12:32;100839.09;;;8.43;100.00
29315;BME280;16320;53.954;9.506;2022-12-20T17:19:47;100856.53;;;8.42;100.00
29315;BME280;16320;53.954;9.506;2022-12-20T17:22:55;100848.66;;;8.44;100.00
29315;BME280;16320;53.954;9.506;2022-12-20T17:30:24;100846.94;;;8.43;100.00
29315;BME280;16320;53.954;9.506;2022-12-20T17:33:29;100846.06;;;8.42;100.00
29315;BME280;16320;53.954;9.506;2022-12-20T17:36:33;100848.75;;;8.41;100.00
29315;BME280;16320;53.954;9.506;2022-12-20T17:39:41;100843.50;;;8.41;100.00
29315;BME280;16320;53.954;9.506;2022-12-20T17:42:47;100839.97;;;8.42;100.00
29315;BME280;16320;53.954;9.506;2022-12-20T17:45:52;100844.25;;;8.45;100.00
29315;BME280;16320;53.954;9.506;2022-12-20T17:49:03;100843.41;;;8.44;100.00
29315;BME280;16320;53.954;9.506;2022-12-20T17:52:15;100843.41;;;8.44;100.00
29315;BME280;16320;53.954;9.506;2022-12-20T17:55:48;100847.69;;;8.47;100.00
29315;BME280;16320;53.954;9.506;2022-12-20T17:59:38;100853.88;;;8.44;100.00
29315;BME280;16320;53.954;9.506;2022-12-20T18:03:15;100869.59;;;8.44;100.00
29315;BME280;16320;53.954;9.506;2022-12-20T18:06:45;100867.06;;;8.41;100.00
29315;BME280;16320;53.954;9.506;2022-12-20T18:10:06;100867.06;;;8.41;100.00
29315;BME280;16320;53.954;9.506;2022-12-20T18:13:20;100869.69;;;8.41;100.00
29315;BME280;16320;53.954;9.506;2022-12-20T18:16:30;100876.69;;;8.40;100.00
29315;BME280;16320;53.954;9.506;2022-12-20T18:19:51;100882.88;;;8.38;100.00
29315;BME280;16320;53.954;9.506;2022-12-20T18:23:02;100884.53;;;8.40;100.00
29315;BME280;16320;53.954;9.506;2022-12-20T18:26:14;100884.53;;;8.40;100.00
29315;BME280;16320;53.954;9.506;2022-12-20T18:29:22;100894.16;;;8.40;100.00
29315;BME280;16320;53.954;9.506;2022-12-20T18:32:50;100887.34;;;8.36;100.00
29315;BME280;16320;53.954;9.506;2022-12-20T18:37:02;100891.56;;;8.40;100.00
29315;BME280;16320;53.954;9.506;2022-12-20T18:44:47;100891.56;;;8.40;100.00
29315;BME280;16320;53.954;9.506;2022-12-20T18:52:47;100881.97;;;8.39;100.00
29315;BME280;16320;53.954;9.506;2022-12-20T19:01:23;100879.44;;;8.37;100.00
29315;BME280;16320;53.954;9.506;2022-12-20T19:09:33;100890.56;;;8.42;100.00
29315;BME280;16320;53.954;9.506;2022-12-20T19:12:58;100889.69;;;8.43;100.00
29315;BME280;16320;53.954;9.506;2022-12-20T19:16:21;100891.56;;;8.40;100.00
29315;BME280;16320;53.954;9.506;2022-12-20T19:19:44;100887.94;;;8.42;100.00
29315;BME280;16320;53.954;9.506;2022-12-20T19:22:59;100885.28;;;8.44;100.00
29315;BME280;16320;53.954;9.506;2022-12-20T19:26:19;100880.16;;;8.41;100.00
29315;BME280;16320;53.954;9.506;2022-12-20T19:29:38;100881.00;;;8.41;100.00
29315;BME280;16320;53.954;9.506;2022-12-20T19:33:00;100875.75;;;8.41;100.00
29315;BME280;16320;53.954;9.506;2022-12-20T19:36:15;100874.00;;;8.42;100.00
29315;BME280;16320;53.954;9.506;2022-12-20T19:40:04;100884.53;;;8.40;100.00
29315;BME280;16320;53.954;9.506;2022-12-20T19:48:01;100885.38;;;8.41;100.00
29315;BME280;16320;53.954;9.506;2022-12-20T19:52:29;100883.69;;;8.40;100.00
29315;BME280;16320;53.954;9.506;2022-12-20T19:56:12;100885.50;;;8.38;100.00
29315;BME280;16320;53.954;9.506;2022-12-20T19:59:58;100898.53;;;8.39;100.00
29315;BME280;16320;53.954;9.506;2022-12-20T20:03:51;100902.81;;;8.42;100.00
29315;BME280;16320;53.954;9.506;2022-12-20T20:12:00;100889.06;;;8.37;100.00
29315;BME280;16320;53.954;9.506;2022-12-20T20:15:19;100890.72;;;8.38;100.00
29315;BME280;16320;53.954;9.506;2022-12-20T20:18:49;100892.69;;;8.33;100.00
29315;BME280;16320;53.954;9.506;2022-12-20T20:22:09;100895.97;;;8.38;100.00
29315;BME280;16320;53.954;9.506;2022-12-20T20:25:20;100900.38;;;8.37;100.00
29315;BME280;16320;53.954;9.506;2022-12-20T20:29:02;100899.53;;;8.37;100.00
29315;BME280;16320;53.954;9.506;2022-12-20T20:37:31;100896.25;;;8.30;100.00
29315;BME280;16320;53.954;9.506;2022-12-20T20:42:02;100903.75;;;8.39;100.00
29315;BME280;16320;53.954;9.506;2022-12-20T20:49:50;100904.81;;;8.35;100.00
29315;BME280;16320;53.954;9.506;2022-12-20T20:53:05;100906.38;;;8.39;100.00
29315;BME280;16320;53.954;9.506;2022-12-20T20:56:16;100901.09;;;8.41;100.00
29315;BME280;16320;53.954;9.506;2022-12-20T20:59:20;100898.41;;;8.42;100.00
29315;BME280;16320;53.954;9.506;2022-12-20T21:02:25;100894.00;;;8.45;100.00
29315;BME280;16320;53.954;9.506;2022-12-20T21:05:32;100897.47;;;8.45;100.00
29315;BME280;16320;53.954;9.506;2022-12-20T21:08:59;100894.94;;;8.42;100.00
29315;BME280;16320;53.954;9.506;2022-12-20T21:12:04;100901.94;;;8.41;100.00
29315;BME280;16320;53.954;9.506;2022-12-20T21:15:10;100912.41;;;8.41;100.00
29315;BME280;16320;53.954;9.506;2022-12-20T21:18:27;100907.16;;;8.41;100.00
29315;BME280;16320;53.954;9.506;2022-12-20T21:21:37;100907.25;;;8.40;100.00
29315;BME280;16320;53.954;9.506;2022-12-20T21:24:42;100906.31;;;8.41;100.00
29315;BME280;16320;53.954;9.506;2022-12-20T21:27:47;100906.50;;;8.36;100.00
29315;BME280;16320;53.954;9.506;2022-12-20T21:31:04;100903.03;;;8.36;100.00
29315;BME280;16320;53.954;9.506;2022-12-20T21:34:12;100907.84;;;8.24;100.00
29315;BME280;16320;53.954;9.506;2022-12-20T21:37:17;100913.84;;;8.27;100.00
29315;BME280;16320;53.954;9.506;2022-12-20T21:40:22;100919.09;;;8.27;100.00
29315;BME280;16320;53.954;9.506;2022-12-20T21:43:27;100920.94;;;8.24;100.00